Climatologie pour Saint-Brevin les Pins
Jour • Résumé pour avril 8, 2017 Système :  Métrique    Anglais   Mixte
« - 1 jour
+ 1 jour »
Jour Semaine Mois Année Personnalisé
  Maximum : Minimum : Moyenne :
Température sous abri : -17.8 °C -14.3 °C -9.8 °C
Point de rosée : -17.8 °C -14.9 °C -12.6 °C
Humidité : Humidity % 41 % 75 %
Vitesse du vent : 0 km/h 0 km/h 7.4 km/h
Rafale : 0 km/h - -
Direction :- - ESE
Pression : 0 hPa 34476.3 hPa -
Précipitations : 0 mm    
Historical Graphs
 
 
Tableau de données pour avril 8, 2017
Heure Tempé Pt rosée Pression Vent Vitesse Rafale Humidité Taux pluie (/hr) Soleil
-17.8 °C -17.8 °C 0 hPa Calm     Humidity % 0 mm SolarRadiationWatts/m^2 W/m2 Conditions
00:00 -11.7 °C -13.2 °C 34625.2 hPa ENE 5.1 km/h 15.6 km/h 84 % 0 mm 0 W/m2
00:05 -11.8 °C -13.2 °C 34635.4 hPa ENE 2.6 km/h 12.9 km/h 84 % 0 mm 0 W/m2
00:10 -11.8 °C -13.2 °C 34625.2 hPa Calm   12.9 km/h 84 % 0 mm 0 W/m2
00:15 -11.8 °C -13.2 °C 34635.4 hPa ENE 2.6 km/h 10.3 km/h 84 % 0 mm 0 W/m2
00:20 -11.8 °C -13.3 °C 34635.4 hPa East 7.7 km/h 10.3 km/h 84 % 0 mm 0 W/m2
00:25 -11.9 °C -13.3 °C 34625.2 hPa East 5.1 km/h 10.3 km/h 85 % 0 mm 0 W/m2
00:30 -12.1 °C -13.4 °C 34625.2 hPa ENE 2.6 km/h 10.3 km/h 85 % 0 mm 0 W/m2
00:35 -12.1 °C -13.4 °C 34625.2 hPa East 2.6 km/h 12.9 km/h 85 % 0 mm 0 W/m2
00:40 -12.2 °C -13.4 °C 34625.2 hPa Calm   12.9 km/h 86 % 0 mm 0 W/m2
00:45 -12.3 °C -13.5 °C 34625.2 hPa ENE 2.6 km/h 12.9 km/h 86 % 0 mm 0 W/m2
00:50 -12.3 °C -13.5 °C 34625.2 hPa NE 5.1 km/h 12.9 km/h 87 % 0 mm 0 W/m2
00:55 -12.3 °C -13.5 °C 34625.2 hPa Calm   10.3 km/h 87 % 0 mm 0 W/m2
01:00 -12.4 °C -13.5 °C 34625.2 hPa ENE 7.7 km/h 12.9 km/h 88 % 0 mm 0 W/m2
01:05 -12.5 °C -13.6 °C 34625.2 hPa Calm   12.9 km/h 88 % 0 mm 0 W/m2
01:10 -12.4 °C -13.4 °C 34625.2 hPa NE 7.7 km/h 18.2 km/h 89 % 0 mm 0 W/m2
01:15 -12.4 °C -13.4 °C 34625.2 hPa ENE 5.1 km/h 18.2 km/h 88 % 0 mm 0 W/m2
01:20 -12.3 °C -13.4 °C 34625.2 hPa ENE 7.7 km/h 15.6 km/h 88 % 0 mm 0 W/m2
01:25 -12.3 °C -13.4 °C 34625.2 hPa ENE 7.7 km/h 12.9 km/h 87 % 0 mm 0 W/m2
01:30 -12.1 °C -13.3 °C 34611.7 hPa ENE 7.7 km/h 12.9 km/h 87 % 0 mm 0 W/m2
01:35 -12.1 °C -13.3 °C 34611.7 hPa East 5.1 km/h 12.9 km/h 86 % 0 mm 0 W/m2
01:40 -12.1 °C -13.3 °C 34611.7 hPa East 5.1 km/h 20.8 km/h 86 % 0 mm 0 W/m2
01:45 -12.1 °C -13.3 °C 34611.7 hPa ENE 2.6 km/h 20.8 km/h 86 % 0 mm 0 W/m2
01:50 -12.1 °C -13.3 °C 34611.7 hPa ENE 10.3 km/h 15.6 km/h 86 % 0 mm 0 W/m2
01:55 -12.1 °C -13.4 °C 34611.7 hPa ENE 5.1 km/h 20.8 km/h 86 % 0 mm 0 W/m2
02:00 -12.1 °C -13.3 °C 34611.7 hPa East 5.1 km/h 20.8 km/h 86 % 0 mm 0 W/m2
02:05 -12.1 °C -13.3 °C 34611.7 hPa East 5.1 km/h 18.2 km/h 86 % 0 mm 0 W/m2
02:10 -12.1 °C -13.4 °C 34611.7 hPa East 10.3 km/h 18.2 km/h 85 % 0 mm 0 W/m2
02:15 -12.1 °C -13.4 °C 34601.5 hPa ENE 10.3 km/h 18.2 km/h 85 % 0 mm 0 W/m2
02:20 -12.1 °C -13.4 °C 34601.5 hPa East 7.7 km/h 18.2 km/h 85 % 0 mm 0 W/m2
02:25 -12.1 °C -13.4 °C 34601.5 hPa ENE 5.1 km/h 18.2 km/h 85 % 0 mm 0 W/m2
02:30 -12.1 °C -13.4 °C 34601.5 hPa East 12.9 km/h 18.2 km/h 86 % 0 mm 0 W/m2
02:35 -12.1 °C -13.4 °C 34601.5 hPa East 7.7 km/h 18.2 km/h 85 % 0 mm 0 W/m2
02:40 -12.1 °C -13.4 °C 34601.5 hPa East 5.1 km/h 18.2 km/h 85 % 0 mm 0 W/m2
02:45 -12.1 °C -13.4 °C 34601.5 hPa East 7.7 km/h 15.6 km/h 85 % 0 mm 0 W/m2
02:50 -12.1 °C -13.4 °C 34601.5 hPa East 2.6 km/h 15.6 km/h 85 % 0 mm 0 W/m2
02:55 -12.1 °C -13.4 °C 34601.5 hPa East 2.6 km/h 12.9 km/h 85 % 0 mm 0 W/m2
03:00 -12.2 °C -13.6 °C 34601.5 hPa East 2.6 km/h 12.9 km/h 85 % 0 mm 0 W/m2
03:05 -12.3 °C -13.6 °C 34601.5 hPa East 7.7 km/h 15.6 km/h 85 % 0 mm 0 W/m2
03:10 -12.4 °C -13.7 °C 34601.5 hPa East 5.1 km/h 15.6 km/h 86 % 0 mm 0 W/m2
03:15 -12.5 °C -13.7 °C 34601.5 hPa East 2.6 km/h 12.9 km/h 86 % 0 mm 0 W/m2
03:20 -12.6 °C -13.8 °C 34601.5 hPa East 2.6 km/h 7.7 km/h 86 % 0 mm 0 W/m2
03:25 -12.8 °C -13.9 °C 34601.5 hPa East 2.6 km/h 7.7 km/h 87 % 0 mm 0 W/m2
03:30 -12.9 °C -14 °C 34591.4 hPa East 2.6 km/h 7.7 km/h 88 % 0 mm 0 W/m2
03:35 -12.9 °C -13.9 °C 34591.4 hPa East 5.1 km/h 7.7 km/h 89 % 0 mm 0 W/m2
03:40 -13.1 °C -14 °C 34591.4 hPa East 5.1 km/h 10.3 km/h 89 % 0 mm 0 W/m2
03:45 -13.1 °C -13.9 °C 34591.4 hPa ENE 5.1 km/h 10.3 km/h 90 % 0 mm 0 W/m2
03:50 -12.9 °C -13.8 °C 34591.4 hPa Calm   10.3 km/h 90 % 0 mm 0 W/m2
03:55 -12.9 °C -13.8 °C 34591.4 hPa ENE 2.6 km/h 10.3 km/h 89 % 0 mm 0 W/m2
04:00 -12.8 °C -13.8 °C 34591.4 hPa East 2.6 km/h 15.6 km/h 88 % 0 mm 0 W/m2
04:05 -12.7 °C -13.8 °C 34577.8 hPa East 2.6 km/h 15.6 km/h 88 % 0 mm 0 W/m2
04:10 -12.7 °C -13.8 °C 34577.8 hPa East 2.6 km/h 12.9 km/h 87 % 0 mm 0 W/m2
04:15 -12.7 °C -13.8 °C 34577.8 hPa Calm   10.3 km/h 87 % 0 mm 0 W/m2
04:20 -12.7 °C -13.8 °C 34577.8 hPa East 2.6 km/h 7.7 km/h 87 % 0 mm 0 W/m2
04:25 -12.8 °C -13.9 °C 34577.8 hPa Calm   12.9 km/h 87 % 0 mm 0 W/m2
04:30 -12.9 °C -14 °C 34577.8 hPa Calm   12.9 km/h 87 % 0 mm 0 W/m2
04:35 -13.1 °C -14.1 °C 34577.8 hPa Calm   7.7 km/h 88 % 0 mm 0 W/m2
04:40 -13.2 °C -14.2 °C 34577.8 hPa Calm   2.6 km/h 89 % 0 mm 0 W/m2
04:45 -13.4 °C -14.3 °C 34577.8 hPa Calm     89 % 0 mm 0 W/m2
04:50 -13.4 °C -14.3 °C 34577.8 hPa Calm     90 % 0 mm 0 W/m2
04:55 -13.5 °C -14.3 °C 34577.8 hPa Calm   5.1 km/h 90 % 0 mm 0 W/m2
05:00 -13.4 °C -14.3 °C 34577.8 hPa East 2.6 km/h 7.7 km/h 90 % 0 mm 0 W/m2
05:05 -13.6 °C -14.4 °C 34577.8 hPa East 5.1 km/h 7.7 km/h 90 % 0 mm 0 W/m2
05:10 -13.7 °C -14.4 °C 34577.8 hPa East 5.1 km/h 7.7 km/h 91 % 0 mm 0 W/m2
05:15 -13.7 °C -14.4 °C 34577.8 hPa East 7.7 km/h 7.7 km/h 91 % 0 mm 0 W/m2
05:20 -13.8 °C -14.6 °C 34567.7 hPa East 2.6 km/h 7.7 km/h 91 % 0 mm 0 W/m2
05:25 -13.9 °C -14.6 °C 34567.7 hPa East 7.7 km/h 7.7 km/h 92 % 0 mm 0 W/m2
05:30 -13.9 °C -14.6 °C 34567.7 hPa East 2.6 km/h 7.7 km/h 92 % 0 mm 0 W/m2
05:35 -13.9 °C -14.6 °C 34567.7 hPa East 2.6 km/h 7.7 km/h 92 % 0 mm 0 W/m2
05:40 -14.1 °C -14.7 °C 34567.7 hPa East 5.1 km/h 7.7 km/h 92 % 0 mm 0 W/m2
05:45 -14.1 °C -14.7 °C 34567.7 hPa East 2.6 km/h 7.7 km/h 93 % 0 mm 0 W/m2
05:50 -14.1 °C -14.6 °C 34567.7 hPa East 2.6 km/h 7.7 km/h 94 % 0 mm 0 W/m2
05:55 -14.1 °C -14.7 °C 34567.7 hPa Calm   5.1 km/h 93 % 0 mm 0 W/m2
06:00 -14.1 °C -14.7 °C 34567.7 hPa Calm   7.7 km/h 93 % 0 mm 0 W/m2
06:05 -14 °C -14.6 °C 34567.7 hPa Calm   7.7 km/h 93 % 0 mm 0 W/m2
06:10 -14.1 °C -14.7 °C 34567.7 hPa Calm   12.9 km/h 93 % 0 mm 0 W/m2
06:15 -14.2 °C -14.8 °C 34567.7 hPa East 5.1 km/h 12.9 km/h 93 % 0 mm 0 W/m2
06:20 -14.3 °C -14.9 °C 34567.7 hPa East 2.6 km/h 7.7 km/h 93 % 0 mm 0 W/m2
06:25 -14.3 °C -14.8 °C 34567.7 hPa ENE 5.1 km/h 12.9 km/h 94 % 0 mm 0 W/m2
06:30 -14.1 °C -14.6 °C 34567.7 hPa ENE 7.7 km/h 12.9 km/h 95 % 0 mm 0 W/m2
06:35 -14.1 °C -14.6 °C 34567.7 hPa ENE 2.6 km/h 12.9 km/h 94 % 0 mm 0 W/m2
06:40 -14.1 °C -14.6 °C 34567.7 hPa ENE 2.6 km/h 10.3 km/h 94 % 0 mm 0 W/m2
06:45 -14.1 °C -14.6 °C 34567.7 hPa ENE 7.7 km/h 12.9 km/h 94 % 0 mm 0 W/m2
06:50 -14.1 °C -14.6 °C 34567.7 hPa ENE 2.6 km/h 12.9 km/h 94 % 0 mm 0 W/m2
06:55 -14.1 °C -14.6 °C 34567.7 hPa ENE 5.1 km/h 10.3 km/h 94 % 0 mm 0 W/m2
07:00 -14 °C -14.5 °C 34567.7 hPa ENE 5.1 km/h 12.9 km/h 94 % 0 mm 0 W/m2
07:05 -13.9 °C -14.4 °C 34567.7 hPa ENE 10.3 km/h 12.9 km/h 94 % 0 mm 0 W/m2
07:10 -13.9 °C -14.6 °C 34567.7 hPa ENE 18.2 km/h 18.2 km/h 93 % 0 mm 0 W/m2
07:15 -14.1 °C -14.7 °C 34567.7 hPa ENE 7.7 km/h 18.2 km/h 93 % 0 mm 0 W/m2
07:20 -14.1 °C -14.6 °C 34567.7 hPa ENE 2.6 km/h 18.2 km/h 94 % 0 mm 0 W/m2
07:25 -14 °C -14.5 °C 34567.7 hPa ENE 12.9 km/h 18.2 km/h 94 % 0 mm 0 W/m2
07:30 -13.9 °C -14.4 °C 34567.7 hPa ENE 7.7 km/h 20.8 km/h 94 % 0 mm 0 W/m2
07:35 -13.9 °C -14.4 °C 34567.7 hPa ENE 5.1 km/h 20.8 km/h 94 % 0 mm 5 W/m2
07:40 -13.9 °C -14.4 °C 34567.7 hPa ENE 7.7 km/h 20.8 km/h 94 % 0 mm 7 W/m2
07:45 -13.8 °C -14.3 °C 34567.7 hPa ENE 15.6 km/h 20.8 km/h 94 % 0 mm 9 W/m2
07:50 -13.9 °C -14.4 °C 34567.7 hPa ENE 10.3 km/h 20.8 km/h 94 % 0 mm 12 W/m2
07:55 -13.8 °C -14.3 °C 34567.7 hPa East 5.1 km/h 23.3 km/h 94 % 0 mm 14 W/m2
08:00 -13.7 °C -14.2 °C 34567.7 hPa East 5.1 km/h 23.3 km/h 94 % 0 mm 18 W/m2
08:05 -13.6 °C -14.2 °C 34567.7 hPa ENE 10.3 km/h 20.8 km/h 93 % 0 mm 19 W/m2
08:10 -13.6 °C -14.1 °C 34567.7 hPa East 5.1 km/h 20.8 km/h 93 % 0 mm 23 W/m2
08:15 -13.5 °C -14.2 °C 34567.7 hPa East 7.7 km/h 20.8 km/h 92 % 0 mm 25 W/m2
08:20 -13.4 °C -14.1 °C 34567.7 hPa ENE 7.7 km/h 20.8 km/h 92 % 0 mm 28 W/m2
08:25 -13.3 °C -14 °C 34567.7 hPa East 7.7 km/h 20.8 km/h 92 % 0 mm 33 W/m2
08:30 -13.2 °C -14 °C 34567.7 hPa Calm   18.2 km/h 91 % 0 mm 42 W/m2
08:35 -13.2 °C -13.9 °C 34567.7 hPa NE 10.3 km/h 18.2 km/h 91 % 0 mm 114 W/m2
08:40 -13.1 °C -13.9 °C 34567.7 hPa Calm   18.2 km/h 90 % 0 mm 128 W/m2
08:45 -12.9 °C -13.8 °C 34567.7 hPa Calm   15.6 km/h 90 % 0 mm 144 W/m2
08:50 -12.8 °C -13.7 °C 34567.7 hPa Calm   15.6 km/h 89 % 0 mm 156 W/m2
08:55 -12.7 °C -13.6 °C 34567.7 hPa East 12.9 km/h 12.9 km/h 89 % 0 mm 174 W/m2
09:00 -12.6 °C -13.6 °C 34567.7 hPa ENE 5.1 km/h 15.6 km/h 88 % 0 mm 192 W/m2
09:05 -12.4 °C -13.5 °C 34567.7 hPa ENE 5.1 km/h 15.6 km/h 87 % 0 mm 209 W/m2
09:10 -12.2 °C -13.4 °C 34567.7 hPa East 5.1 km/h 20.8 km/h 86 % 0 mm 227 W/m2
09:15 -12.1 °C -13.3 °C 34567.7 hPa East 12.9 km/h 20.8 km/h 86 % 0 mm 244 W/m2
09:20 -11.8 °C -13.2 °C 34567.7 hPa ENE 5.1 km/h 18.2 km/h 85 % 0 mm 260 W/m2
09:25 -11.7 °C -13.1 °C 34567.7 hPa East 12.9 km/h 20.8 km/h 84 % 0 mm 276 W/m2
09:30 -11.4 °C -13 °C 34567.7 hPa ENE 7.7 km/h 20.8 km/h 83 % 0 mm 288 W/m2
09:35 -11.3 °C -13.1 °C 34567.7 hPa East 5.1 km/h 18.2 km/h 81 % 0 mm 308 W/m2
09:40 -11.1 °C -12.8 °C 34567.7 hPa ESE 18.2 km/h 18.2 km/h 81 % 0 mm 322 W/m2
09:45 -10.9 °C -12.8 °C 34567.7 hPa Calm   20.8 km/h 80 % 0 mm 338 W/m2
09:50 -10.8 °C -12.7 °C 34567.7 hPa East 7.7 km/h 20.8 km/h 79 % 0 mm 353 W/m2
09:55 -10.7 °C -12.8 °C 34567.7 hPa ENE 20.8 km/h 23.3 km/h 78 % 0 mm 369 W/m2
10:00 -10.6 °C -12.7 °C 34567.7 hPa ESE 7.7 km/h 23.3 km/h 78 % 0 mm 381 W/m2
10:05 -10.4 °C -12.6 °C 34567.7 hPa ESE 15.6 km/h 23.3 km/h 77 % 0 mm 397 W/m2
10:10 -10.3 °C -12.5 °C 34567.7 hPa ENE 10.3 km/h 23.3 km/h 77 % 0 mm 411 W/m2
10:15 -10.2 °C -12.6 °C 34567.7 hPa NE 12.9 km/h 23.3 km/h 75 % 0 mm 427 W/m2
10:20 -9.9 °C -12.4 °C 34567.7 hPa ESE 10.3 km/h 25.9 km/h 75 % 0 mm 443 W/m2
10:25 -9.8 °C -12.3 °C 34567.7 hPa East 5.1 km/h 25.9 km/h 75 % 0 mm 455 W/m2
10:30 -9.8 °C -12.4 °C 34554.1 hPa East 23.3 km/h 25.9 km/h 73 % 0 mm 469 W/m2
10:35 -9.6 °C -12.2 °C 34554.1 hPa ESE 20.8 km/h 31.1 km/h 73 % 0 mm 482 W/m2
10:40 -9.3 °C -11.9 °C 34554.1 hPa East 7.7 km/h 31.1 km/h 73 % 0 mm 497 W/m2
10:45 -9.1 °C -12.2 °C 34554.1 hPa East 18.2 km/h 28.5 km/h 70 % 0 mm 512 W/m2
10:50 -9 °C -12.1 °C 34554.1 hPa East 12.9 km/h 28.5 km/h 69 % 0 mm 524 W/m2
10:55 -8.9 °C -12.1 °C 34554.1 hPa East 23.3 km/h 25.9 km/h 69 % 0 mm 538 W/m2
11:00 -8.8 °C -11.9 °C 34554.1 hPa ESE 23.3 km/h 28.5 km/h 69 % 0 mm 552 W/m2
11:05 -8.7 °C -12.1 °C 34567.7 hPa East 25.9 km/h 33.6 km/h 67 % 0 mm 563 W/m2
11:10 -8.5 °C -12.1 °C 34554.1 hPa ESE 10.3 km/h 33.6 km/h 66 % 0 mm 575 W/m2
11:15 -8.3 °C -11.9 °C 34554.1 hPa SE 12.9 km/h 28.5 km/h 66 % 0 mm 589 W/m2
11:20 -8.2 °C -11.9 °C 34554.1 hPa ENE 20.8 km/h 31.1 km/h 65 % 0 mm 599 W/m2
11:25 -8.1 °C -11.8 °C 34554.1 hPa East 5.1 km/h 33.6 km/h 65 % 0 mm 612 W/m2
11:30 -7.9 °C -11.7 °C 34554.1 hPa SE 23.3 km/h 33.6 km/h 64 % 0 mm 626 W/m2
11:35 -7.8 °C -11.9 °C 34554.1 hPa SE 23.3 km/h 33.6 km/h 62 % 0 mm 635 W/m2
11:40 -7.7 °C -11.7 °C 34554.1 hPa SE 10.3 km/h 28.5 km/h 63 % 0 mm 645 W/m2
11:45 -7.6 °C -11.7 °C 34554.1 hPa ENE 18.2 km/h 33.6 km/h 62 % 0 mm 654 W/m2
11:50 -7.4 °C -11.4 °C 34554.1 hPa East 7.7 km/h 33.6 km/h 63 % 0 mm 664 W/m2
11:55 -7.3 °C -11.7 °C 34554.1 hPa ESE 20.8 km/h 38.8 km/h 60 % 0 mm 675 W/m2
12:00 -7.2 °C -11.2 °C 34554.1 hPa East 7.7 km/h 38.8 km/h 63 % 0 mm 684 W/m2
12:05 -7.3 °C -11.7 °C 34554.1 hPa SE 20.8 km/h 31.1 km/h 60 % 0 mm 694 W/m2
12:10 -7.2 °C -11.5 °C 34544 hPa East 7.7 km/h 31.1 km/h 61 % 0 mm 703 W/m2
12:15 -7.2 °C -11.7 °C 34544 hPa East 7.7 km/h 33.6 km/h 59 % 0 mm 712 W/m2
12:20 -6.8 °C -11.4 °C 34544 hPa ESE 7.7 km/h 33.6 km/h 59 % 0 mm 719 W/m2
12:25 -6.5 °C -10.8 °C 34544 hPa ENE 7.7 km/h 23.3 km/h 61 % 0 mm 724 W/m2
12:30 -6.5 °C -11.3 °C 34544 hPa East 5.1 km/h 25.9 km/h 58 % 0 mm 735 W/m2
12:35 -6.6 °C -11.4 °C 34544 hPa ESE 20.8 km/h 31.1 km/h 57 % 0 mm 738 W/m2
12:40 -6.6 °C -11.2 °C 34544 hPa East 20.8 km/h 31.1 km/h 59 % 0 mm 749 W/m2
12:45 -6.3 °C -11.1 °C 34544 hPa East 25.9 km/h 28.5 km/h 58 % 0 mm 751 W/m2
12:50 -6.3 °C -11.1 °C 34544 hPa ENE 25.9 km/h 33.6 km/h 58 % 0 mm 756 W/m2
12:55 -6.3 °C -11.1 °C 34544 hPa East 12.9 km/h 33.6 km/h 58 % 0 mm 759 W/m2
13:00 -6.2 °C -11.4 °C 34544 hPa ESE 31.1 km/h 33.6 km/h 55 % 0 mm 765 W/m2
13:05 -6.2 °C -11.2 °C 34544 hPa ESE 7.7 km/h 33.6 km/h 56 % 0 mm 770 W/m2
13:10 -6 °C -11.4 °C 34533.8 hPa ESE 18.2 km/h 33.6 km/h 54 % 0 mm 775 W/m2
13:15 -5.7 °C -10.5 °C 34533.8 hPa ESE 15.6 km/h 31.1 km/h 58 % 0 mm 780 W/m2
13:20 -5.7 °C -10.9 °C 34533.8 hPa East 23.3 km/h 33.6 km/h 55 % 0 mm 779 W/m2
13:25 -5.7 °C -11.1 °C 34533.8 hPa ESE 5.1 km/h 33.6 km/h 54 % 0 mm 788 W/m2
13:30 -5.4 °C -10.9 °C 34533.8 hPa SE 18.2 km/h 28.5 km/h 54 % 0 mm 789 W/m2
13:35 -5.3 °C -10.9 °C 34533.8 hPa SSE 10.3 km/h 28.5 km/h 53 % 0 mm 791 W/m2
13:40 -5.4 °C -11.3 °C 34533.8 hPa SE 23.3 km/h 31.1 km/h 51 % 0 mm 791 W/m2
13:45 -5.3 °C -10.9 °C 34520.3 hPa ESE 25.9 km/h 33.6 km/h 53 % 0 mm 793 W/m2
13:50 -5.4 °C -11.3 °C 34520.3 hPa SE 28.5 km/h 33.6 km/h 51 % 0 mm 793 W/m2
13:55 -5.2 °C -10.8 °C 34520.3 hPa ESE 7.7 km/h 38.8 km/h 53 % 0 mm 795 W/m2
14:00 -5.1 °C -11.2 °C 34520.3 hPa ESE 23.3 km/h 38.8 km/h 50 % 0 mm 793 W/m2
14:05 -5.1 °C -11 °C 34520.3 hPa ESE 7.7 km/h 36.2 km/h 51 % 0 mm 800 W/m2
14:10 -4.9 °C -10.8 °C 34520.3 hPa South 10.3 km/h 28.5 km/h 51 % 0 mm 793 W/m2
14:15 -4.8 °C -10.8 °C 34520.3 hPa ESE 7.7 km/h 31.1 km/h 51 % 0 mm 796 W/m2
14:20 -4.6 °C -10.6 °C 34520.3 hPa ESE 23.3 km/h 31.1 km/h 51 % 0 mm 796 W/m2
14:25 -4.8 °C -11.4 °C 34520.3 hPa ESE 7.7 km/h 33.6 km/h 47 % 0 mm 788 W/m2
14:30 -4.9 °C -11.3 °C 34520.3 hPa SE 10.3 km/h 33.6 km/h 48 % 0 mm 788 W/m2
14:35 -4.8 °C -11.5 °C 34520.3 hPa SE 5.1 km/h 33.6 km/h 47 % 0 mm 791 W/m2
14:40 -4.6 °C -11.1 °C 34520.3 hPa SE 18.2 km/h 33.6 km/h 48 % 0 mm 789 W/m2
14:45 -4.5 °C -10.6 °C 34510.1 hPa East 7.7 km/h 28.5 km/h 50 % 0 mm 780 W/m2
14:50 -4.4 °C -11.1 °C 34510.1 hPa SE 23.3 km/h 28.5 km/h 47 % 0 mm 779 W/m2
14:55 -4.6 °C -10.7 °C 34510.1 hPa South 15.6 km/h 31.1 km/h 50 % 0 mm 772 W/m2
15:00 -4.6 °C -10.8 °C 34510.1 hPa ESE 7.7 km/h 31.1 km/h 49 % 0 mm 765 W/m2
15:10 -4.3 °C -10.8 °C 34510.1 hPa North 7.7 km/h 31.1 km/h 48 % 0 mm 761 W/m2
15:20 -4.4 °C -10.9 °C 34510.1 hPa South 12.9 km/h 28.5 km/h 48 % 0 mm 751 W/m2
15:25 -4.3 °C -11 °C 34496.6 hPa SSE 10.3 km/h 28.5 km/h 47 % 0 mm 744 W/m2
15:30 -4.3 °C -11.2 °C 34496.6 hPa ESE 25.9 km/h 28.5 km/h 46 % 0 mm 740 W/m2
15:35 -4.2 °C -10.7 °C 34496.6 hPa SE 20.8 km/h 28.5 km/h 48 % 0 mm 729 W/m2
15:40 -4.2 °C -11.1 °C 34496.6 hPa East 2.6 km/h 36.2 km/h 46 % 0 mm 726 W/m2
15:45 -4.1 °C -10.9 °C 34496.6 hPa ESE 25.9 km/h 36.2 km/h 46 % 0 mm 715 W/m2
15:50 -4 °C -11.1 °C 34496.6 hPa ESE 18.2 km/h 33.6 km/h 45 % 0 mm 708 W/m2
15:55 -4.1 °C -11.1 °C 34496.6 hPa SSW 15.6 km/h 31.1 km/h 45 % 0 mm 698 W/m2
16:00 -3.9 °C -10.4 °C 34496.6 hPa SE 15.6 km/h 31.1 km/h 48 % 0 mm 693 W/m2
16:05 -3.8 °C -10.4 °C 34496.6 hPa ESE 10.3 km/h 28.5 km/h 48 % 0 mm 680 W/m2
16:10 -3.8 °C -10.9 °C 34486.4 hPa SE 20.8 km/h 28.5 km/h 45 % 0 mm 670 W/m2
16:15 -3.8 °C -11.3 °C 34486.4 hPa South 18.2 km/h 25.9 km/h 43 % 0 mm 668 W/m2
16:20 -3.7 °C -11.1 °C 34486.4 hPa East 18.2 km/h 33.6 km/h 44 % 0 mm 659 W/m2
16:25 -3.8 °C -11.3 °C 34486.4 hPa East 15.6 km/h 33.6 km/h 43 % 0 mm 650 W/m2
16:30 -3.8 °C -11.1 °C 34486.4 hPa South 7.7 km/h 31.1 km/h 44 % 0 mm 631 W/m2
16:35 -3.8 °C -11.3 °C 34486.4 hPa SSE 7.7 km/h 31.1 km/h 43 % 0 mm 624 W/m2
16:40 -3.8 °C -11.3 °C 34486.4 hPa SE 10.3 km/h 25.9 km/h 43 % 0 mm 615 W/m2
16:45 -3.8 °C -11.1 °C 34486.4 hPa ESE 7.7 km/h 25.9 km/h 44 % 0 mm 606 W/m2
16:50 -3.5 °C -11.1 °C 34486.4 hPa SE 15.6 km/h 23.3 km/h 43 % 0 mm 594 W/m2
16:55 -3.7 °C -11.6 °C 34486.4 hPa East 12.9 km/h 25.9 km/h 41 % 0 mm 585 W/m2
17:00 -3.7 °C -11.4 °C 34486.4 hPa ESE 7.7 km/h 25.9 km/h 42 % 0 mm 571 W/m2
17:05 -3.8 °C -11.6 °C 34476.3 hPa ESE 5.1 km/h 25.9 km/h 42 % 0 mm 561 W/m2
17:10 -3.7 °C -11.6 °C 34476.3 hPa South 10.3 km/h 25.9 km/h 41 % 0 mm 543 W/m2
17:15 -3.8 °C -11.4 °C 34476.3 hPa SSE 10.3 km/h 23.3 km/h 42 % 0 mm 534 W/m2
17:20 -3.7 °C -11.2 °C 34476.3 hPa Calm   23.3 km/h 43 % 0 mm 517 W/m2
17:25 -4.6 °C -10.4 °C 34476.3 hPa West 5.1 km/h 20.8 km/h 52 % 0 mm 276 W/m2
17:30 -5.2 °C -10.8 °C 34476.3 hPa WNW 7.7 km/h 10.3 km/h 53 % 0 mm 394 W/m2
17:35 -5.4 °C -10.9 °C 34476.3 hPa West 7.7 km/h 10.3 km/h 53 % 0 mm 330 W/m2
17:40 -5.5 °C -10.8 °C 34476.3 hPa West 10.3 km/h 15.6 km/h 55 % 0 mm 457 W/m2
17:45 -5.5 °C -10.9 °C 34476.3 hPa SW 2.6 km/h 15.6 km/h 54 % 0 mm 236 W/m2
17:50 -5.9 °C -11 °C 34476.3 hPa NW 10.3 km/h 12.9 km/h 56 % 0 mm 155 W/m2
17:55 -6 °C -10.8 °C 34476.3 hPa West 2.6 km/h 12.9 km/h 58 % 0 mm 116 W/m2
18:00 -6.2 °C -11 °C 34476.3 hPa West 20.8 km/h 20.8 km/h 58 % 0 mm 176 W/m2
18:05 -6.8 °C -11.1 °C 34476.3 hPa WSW 7.7 km/h 20.8 km/h 61 % 0 mm 192 W/m2
18:10 -6.9 °C -11.1 °C 34476.3 hPa WSW 10.3 km/h 20.8 km/h 62 % 0 mm 381 W/m2
18:15 -7.2 °C -11.3 °C 34476.3 hPa Calm   18.2 km/h 62 % 0 mm 367 W/m2
18:20 -7.3 °C -11.1 °C 34476.3 hPa SW 2.6 km/h 18.2 km/h 64 % 0 mm 352 W/m2
18:25 -7.5 °C -11.2 °C 34476.3 hPa West 5.1 km/h 18.2 km/h 65 % 0 mm 338 W/m2
18:30 -7.5 °C -11.2 °C 34476.3 hPa West 18.2 km/h 18.2 km/h 65 % 0 mm 325 W/m2
18:35 -7.7 °C -11.4 °C 34476.3 hPa WSW 18.2 km/h 20.8 km/h 65 % 0 mm 309 W/m2
18:40 -7.7 °C -11.6 °C 34476.3 hPa SW 7.7 km/h 20.8 km/h 64 % 0 mm 294 W/m2
18:45 -7.7 °C -11.4 °C 34476.3 hPa West 5.1 km/h 18.2 km/h 65 % 0 mm 279 W/m2
18:50 -7.8 °C -11.6 °C 34476.3 hPa WSW 10.3 km/h 18.2 km/h 65 % 0 mm 178 W/m2
18:55 -7.9 °C -11.6 °C 34476.3 hPa Calm   18.2 km/h 65 % 0 mm 104 W/m2
19:00 -7.8 °C -11.4 °C 34476.3 hPa West 10.3 km/h 18.2 km/h 66 % 0 mm 47 W/m2
19:05 -7.8 °C -11.4 °C 34476.3 hPa WNW 5.1 km/h 15.6 km/h 66 % 0 mm 47 W/m2
19:10 -7.9 °C -11.6 °C 34476.3 hPa West 5.1 km/h 15.6 km/h 65 % 0 mm 44 W/m2
19:15 -7.9 °C -11.7 °C 34476.3 hPa WNW 7.7 km/h 15.6 km/h 65 % 0 mm 44 W/m2
19:20 -8.1 °C -11.7 °C 34476.3 hPa WSW 5.1 km/h 18.2 km/h 66 % 0 mm 40 W/m2
19:25 -8.2 °C -11.8 °C 34476.3 hPa WSW 7.7 km/h 18.2 km/h 66 % 0 mm 54 W/m2
19:30 -8.3 °C -11.7 °C 34486.4 hPa WSW 7.7 km/h 15.6 km/h 67 % 0 mm 47 W/m2
19:35 -8.4 °C -11.8 °C 34476.3 hPa WSW 2.6 km/h 18.2 km/h 67 % 0 mm 47 W/m2
19:40 -8.5 °C -11.8 °C 34476.3 hPa WSW 10.3 km/h 18.2 km/h 68 % 0 mm 35 W/m2
19:45 -8.5 °C -11.8 °C 34486.4 hPa West 12.9 km/h 18.2 km/h 68 % 0 mm 35 W/m2
19:50 -8.6 °C -11.8 °C 34476.3 hPa WNW 2.6 km/h 18.2 km/h 68 % 0 mm 32 W/m2
19:55 -8.6 °C -11.8 °C 34476.3 hPa West 7.7 km/h 15.6 km/h 69 % 0 mm 30 W/m2
20:00 -8.7 °C -11.8 °C 34476.3 hPa West 7.7 km/h 12.9 km/h 70 % 0 mm 28 W/m2
20:05 -8.8 °C -11.8 °C 34476.3 hPa West 2.6 km/h 12.9 km/h 70 % 0 mm 25 W/m2
20:10 -8.8 °C -11.8 °C 34476.3 hPa Calm   12.9 km/h 71 % 0 mm 25 W/m2
20:15 -8.8 °C -11.8 °C 34476.3 hPa Calm   7.7 km/h 71 % 0 mm 21 W/m2
20:20 -9 °C -11.8 °C 34476.3 hPa Calm   2.6 km/h 72 % 0 mm 18 W/m2
20:25 -9.2 °C -11.7 °C 34476.3 hPa Calm   2.6 km/h 74 % 0 mm 16 W/m2
20:30 -9.3 °C -11.8 °C 34476.3 hPa Calm   2.6 km/h 75 % 0 mm 12 W/m2
20:35 -9.5 °C -11.8 °C 34476.3 hPa Calm     76 % 0 mm 11 W/m2
20:40 -9.6 °C -11.9 °C 34476.3 hPa Calm     76 % 0 mm 7 W/m2
20:45 -9.7 °C -11.9 °C 34476.3 hPa Calm     77 % 0 mm 5 W/m2
20:50 -9.8 °C -11.8 °C 34476.3 hPa Calm     79 % 0 mm 0 W/m2
20:55 -9.9 °C -11.8 °C 34476.3 hPa Calm     80 % 0 mm 0 W/m2
21:00 -10.1 °C -12 °C 34476.3 hPa Calm     80 % 0 mm 0 W/m2
21:05 -10.2 °C -11.9 °C 34476.3 hPa Calm     81 % 0 mm 0 W/m2
21:10 -10.3 °C -11.9 °C 34476.3 hPa Calm     82 % 0 mm 0 W/m2
21:15 -10.3 °C -11.9 °C 34486.4 hPa Calm   2.6 km/h 82 % 0 mm 0 W/m2
21:20 -10.4 °C -11.9 °C 34486.4 hPa Calm   2.6 km/h 83 % 0 mm 0 W/m2
21:25 -10.3 °C -12 °C 34486.4 hPa Calm   2.6 km/h 82 % 0 mm 0 W/m2
21:30 -10.4 °C -12.1 °C 34486.4 hPa Calm   10.3 km/h 82 % 0 mm 0 W/m2
21:35 -10.3 °C -12 °C 34486.4 hPa Calm   10.3 km/h 82 % 0 mm 0 W/m2
21:40 -10.4 °C -11.9 °C 34486.4 hPa Calm   7.7 km/h 83 % 0 mm 0 W/m2
21:45 -10.4 °C -11.9 °C 34486.4 hPa Calm   7.7 km/h 84 % 0 mm 0 W/m2
21:50 -10.7 °C -12 °C 34486.4 hPa Calm   2.6 km/h 85 % 0 mm 0 W/m2
21:55 -10.9 °C -12.2 °C 34486.4 hPa Calm     85 % 0 mm 0 W/m2
22:00 -11.1 °C -12.3 °C 34486.4 hPa SSE 2.6 km/h 2.6 km/h 86 % 0 mm 0 W/m2
22:05 -11.1 °C -12.2 °C 34486.4 hPa Calm   2.6 km/h 87 % 0 mm 0 W/m2
22:10 -11 °C -12.3 °C 34486.4 hPa SSE 2.6 km/h 2.6 km/h 86 % 0 mm 0 W/m2
22:15 -11.1 °C -12.2 °C 34486.4 hPa Calm   2.6 km/h 87 % 0 mm 0 W/m2
22:20 -11.1 °C -12.2 °C 34486.4 hPa Calm   2.6 km/h 87 % 0 mm 0 W/m2
22:25 -11.2 °C -12.2 °C 34486.4 hPa Calm   2.6 km/h 88 % 0 mm 0 W/m2
22:30 -11.2 °C -12.3 °C 34486.4 hPa Calm   2.6 km/h 87 % 0 mm 0 W/m2
22:35 -11.3 °C -12.4 °C 34486.4 hPa Calm   2.6 km/h 88 % 0 mm 0 W/m2
22:40 -11.5 °C -12.4 °C 34486.4 hPa Calm   2.6 km/h 89 % 0 mm 0 W/m2
22:45 -11.6 °C -12.6 °C 34486.4 hPa Calm     88 % 0 mm 0 W/m2
22:50 -11.7 °C -12.6 °C 34486.4 hPa Calm     89 % 0 mm 0 W/m2
22:55 -11.8 °C -12.6 °C 34486.4 hPa Calm     90 % 0 mm 0 W/m2
23:00 -11.6 °C -12.5 °C 34496.6 hPa Calm     90 % 0 mm 0 W/m2
23:05 -11.6 °C -12.5 °C 34496.6 hPa Calm   2.6 km/h 90 % 0 mm 0 W/m2
23:10 -11.5 °C -12.4 °C 34496.6 hPa Calm   2.6 km/h 90 % 0 mm 0 W/m2
23:15 -11.5 °C -12.6 °C 34496.6 hPa Calm   2.6 km/h 88 % 0 mm 0 W/m2
23:20 -11.6 °C -12.4 °C 34496.6 hPa Calm     90 % 0 mm 0 W/m2
23:25 -11.6 °C -12.6 °C 34496.6 hPa Calm     89 % 0 mm 0 W/m2
23:30 -11.7 °C -12.6 °C 34496.6 hPa Calm     90 % 0 mm 0 W/m2
23:35 -11.9 °C -12.8 °C 34496.6 hPa Calm     90 % 0 mm 0 W/m2
23:40 -12.1 °C -13 °C 34496.6 hPa Calm     90 % 0 mm 0 W/m2
23:45 -12.3 °C -13.1 °C 34496.6 hPa Calm     91 % 0 mm 0 W/m2
23:50 -12.3 °C -13 °C 34496.6 hPa Calm     92 % 0 mm 0 W/m2
23:55 -12.3 °C -12.9 °C 34496.6 hPa Calm     93 % 0 mm 0 W/m2
Avec l'autorisation de Weather Underground - 1.75 mb